Time;durP1;ratioP1;P1;durP2;ratioP2;P2;SDS_P1;SDS_P2;PMS_P1;PMS_P2;Temp;Humidity;BMP_temperature;BMP_pressure;BME280_temperature;BME280_humidity;BME280_pressure;Samples;Min_cycle;Max_cycle;Signal;HPM_P1;HPM_P2
2023/05/11 00:01:20;;;;;;;5.90;3.30;;;;;;;12.89;44.48;99219.51;223348;215;145691;-73
2023/05/11 00:06:25;;;;;;;6.00;3.70;;;;;;;12.82;44.59;99222.16;223222;186;138121;-73
2023/05/11 00:11:28;;;;;;;7.40;3.50;;;;;;;12.78;44.47;99222.06;221760;215;136479;-71
2023/05/11 00:16:32;;;;;;;8.80;3.80;;;;;;;12.74;44.63;99228.02;223440;204;147276;-70
2023/05/11 00:21:36;;;;;;;6.60;3.10;;;;;;;12.69;44.52;99221.75;221984;203;139237;-72
2023/05/11 00:26:39;;;;;;;8.20;4.00;;;;;;;12.65;44.72;99220.28;223845;192;137183;-72
2023/05/11 00:31:47;;;;;;;6.90;3.70;;;;;;;12.59;45.07;99218.03;223645;203;147248;-72
2023/05/11 00:36:51;;;;;;;9.10;3.40;;;;;;;12.56;45.28;99217.33;223615;205;138858;-73
2023/05/11 00:41:55;;;;;;;6.20;4.00;;;;;;;12.51;45.76;99215.12;222834;215;136422;-72
2023/05/11 00:47:07;;;;;;;7.30;3.90;;;;;;;12.41;46.00;99213.16;221542;183;146874;-73
2023/05/11 00:52:13;;;;;;;5.60;3.80;;;;;;;12.33;46.30;99207.29;223328;215;138131;-73
2023/05/11 00:57:17;;;;;;;7.80;3.50;;;;;;;12.26;46.41;99208.27;223633;191;136466;-70
2023/05/11 01:02:21;;;;;;;7.20;3.70;;;;;;;12.20;46.60;99209.94;222191;182;146669;-70
2023/05/11 01:07:42;;;;;;;8.70;4.00;;;;;;;12.13;46.91;99208.44;223029;191;139417;-71
2023/05/11 01:13:19;;;;;;;8.80;3.90;;;;;;;12.06;47.12;99213.31;221388;183;136902;-71
2023/05/11 01:18:45;;;;;;;5.00;3.40;;;;;;;12.00;47.32;99214.60;222153;215;148062;-70
2023/05/11 01:24:22;;;;;;;10.40;4.00;;;;;;;11.97;47.67;99217.33;223651;187;140216;-69
2023/05/11 01:29:55;;;;;;;8.00;4.20;;;;;;;11.89;47.65;99213.94;223641;182;136610;-71
2023/05/11 01:35:06;;;;;;;7.10;3.80;;;;;;;11.81;47.81;99213.50;222831;193;147374;-73
2023/05/11 01:40:16;;;;;;;7.70;4.00;;;;;;;11.77;48.06;99211.27;219232;192;138391;-75
2023/05/11 01:45:22;;;;;;;8.50;3.50;;;;;;;11.71;48.10;99212.21;223661;192;137298;-72
2023/05/11 01:50:25;;;;;;;7.70;3.90;;;;;;;11.67;48.34;99217.41;223616;186;147125;-71
2023/05/11 01:55:31;;;;;;;6.30;4.10;;;;;;;11.63;48.42;99213.98;222644;215;138609;-72
2023/05/11 02:00:35;;;;;;;;;;;;;;;11.60;48.36;99217.49;223757;214;136871;-72
2023/05/11 02:05:40;;;;;;;8.80;3.80;;;;;;;11.53;48.49;99215.62;221522;181;147075;-71
2023/05/11 02:10:49;;;;;;;7.00;3.60;;;;;;;11.46;48.70;99216.61;221368;184;138498;-72
2023/05/11 02:16:07;;;;;;;7.80;3.60;;;;;;;11.38;48.90;99221.70;223589;182;136623;-71
2023/05/11 02:21:15;;;;;;;5.70;3.60;;;;;;;11.34;49.05;99224.98;223675;182;148475;-71
2023/05/11 02:26:19;;;;;;;8.90;3.80;;;;;;;11.30;49.17;99225.09;223733;192;139439;-70
2023/05/11 02:31:31;;;;;;;7.50;4.30;;;;;;;11.22;49.47;99226.30;223703;186;136627;-72
2023/05/11 02:36:37;;;;;;;7.40;3.70;;;;;;;11.16;49.50;99225.77;222199;214;146734;-74
2023/05/11 02:41:45;;;;;;;6.30;4.10;;;;;;;11.11;49.72;99225.55;221265;182;138425;-73
2023/05/11 02:46:51;;;;;;;93.70;68.80;;;;;;;11.08;50.46;99230.48;222911;181;137032;-71
2023/05/11 02:51:58;;;;;;;15.10;11.10;;;;;;;11.09;50.39;99229.58;223619;200;147013;-71
2023/05/11 02:57:02;;;;;;;8.60;5.30;;;;;;;11.03;50.68;99230.98;223558;193;139167;-71
2023/05/11 03:02:07;;;;;;;8.00;4.00;;;;;;;10.98;50.78;99231.48;223579;181;136953;-71
2023/05/11 03:07:12;;;;;;;7.40;4.30;;;;;;;10.91;50.85;99230.33;223524;204;148317;-71
2023/05/11 03:12:16;;;;;;;9.50;4.30;;;;;;;10.89;50.95;99232.52;223577;192;138390;-70
2023/05/11 03:17:20;;;;;;;7.10;4.00;;;;;;;10.89;51.03;99237.36;223588;215;136941;-71
2023/05/11 03:22:26;;;;;;;11.50;4.50;;;;;;;10.88;50.88;99237.04;223306;181;146979;-71
2023/05/11 03:27:32;;;;;;;9.40;4.20;;;;;;;10.89;50.85;99237.02;223596;200;138706;-72
2023/05/11 03:32:37;;;;;;;8.10;4.50;;;;;;;10.86;50.95;99239.85;223622;183;138429;-72
2023/05/11 03:37:43;;;;;;;12.00;7.70;;;;;;;10.89;51.15;99245.69;223669;188;148725;-73
2023/05/11 03:42:49;;;;;;;9.00;4.60;;;;;;;10.93;51.01;99244.42;223489;181;138269;-73
2023/05/11 03:47:55;;;;;;;8.40;4.50;;;;;;;10.92;51.00;99247.08;223670;187;137276;-74
2023/05/11 03:52:59;;;;;;;;;;;;;;;10.95;50.89;99248.89;223615;192;147345;-73
2023/05/11 03:58:09;;;;;;;7.50;4.50;;;;;;;10.98;50.97;99245.86;223572;215;138331;-72
2023/05/11 04:03:13;;;;;;;121.40;89.70;;;;;;;10.99;51.15;99250.58;223686;215;136884;-70
2023/05/11 04:08:17;;;;;;;19.30;12.60;;;;;;;11.03;51.29;99248.92;223668;191;148159;-71
2023/05/11 04:13:21;;;;;;;11.20;5.00;;;;;;;11.05;51.31;99251.80;223532;182;138366;-71
2023/05/11 04:18:28;;;;;;;9.10;4.70;;;;;;;11.04;51.52;99253.49;221227;186;136689;-72
2023/05/11 04:23:32;;;;;;;13.40;4.90;;;;;;;11.07;51.52;99258.64;223240;182;148531;-71
2023/05/11 04:28:35;;;;;;;14.20;4.90;;;;;;;11.08;51.45;99259.98;223667;182;139776;-73
2023/05/11 04:33:39;;;;;;;13.20;4.90;;;;;;;11.14;51.21;99255.02;222813;192;137387;-73
2023/05/11 04:38:43;;;;;;;10.80;4.50;;;;;;;11.22;51.16;99255.64;223417;182;147552;-89
2023/05/11 04:43:47;;;;;;;6.60;4.40;;;;;;;11.26;50.77;99257.27;222851;208;139018;-80
2023/05/11 04:48:55;;;;;;;8.40;4.70;;;;;;;11.28;50.38;99255.59;223620;214;136826;-81
2023/05/11 04:53:59;;;;;;;9.90;4.60;;;;;;;11.33;50.33;99255.29;223579;188;147476;-80
2023/05/11 04:59:03;;;;;;;9.50;4.60;;;;;;;11.38;50.19;99258.00;223687;192;138437;-79
2023/05/11 05:04:08;;;;;;;14.80;4.70;;;;;;;11.42;49.94;99263.45;223819;183;137354;-80
2023/05/11 05:09:13;;;;;;;11.80;4.20;;;;;;;11.47;50.21;99262.59;223511;192;148466;-79
2023/05/11 05:20:42;;;;;;;8.00;4.60;;;;;;;11.58;50.44;99266.51;223909;181;136921;-80
2023/05/11 05:25:47;;;;;;;9.20;4.50;;;;;;;11.67;50.32;99268.98;223608;192;147043;-81
2023/05/11 05:30:50;;;;;;;9.60;4.70;;;;;;;11.73;50.22;99265.05;223553;215;138270;-81
2023/05/11 05:35:56;;;;;;;9.00;4.80;;;;;;;11.87;50.44;99264.71;223589;183;137004;-79
2023/05/11 05:41:01;;;;;;;10.60;4.40;;;;;;;12.02;50.35;99264.08;223595;182;149267;-79
2023/05/11 05:46:08;;;;;;;9.20;4.70;;;;;;;12.12;50.21;99262.73;223607;191;138754;-79
2023/05/11 05:51:13;;;;;;;7.60;4.70;;;;;;;12.20;50.06;99265.27;223121;181;136888;-79
2023/05/11 05:56:44;;;;;;;16.50;5.10;;;;;;;12.27;50.22;99269.41;223840;182;147166;-79
2023/05/11 06:01:52;;;;;;;10.10;4.40;;;;;;;12.37;50.24;99265.54;222771;183;138696;-87
2023/05/11 06:07:01;;;;;;;13.60;4.70;;;;;;;12.46;50.20;99268.75;223640;184;136825;-84
2023/05/11 06:12:08;;;;;;;13.40;4.70;;;;;;;12.57;50.33;99271.02;223615;186;147096;-85
2023/05/11 06:17:16;;;;;;;9.50;5.00;;;;;;;12.69;50.40;99271.27;223152;184;138262;-83
2023/05/11 06:22:21;;;;;;;10.80;4.90;;;;;;;12.79;50.23;99277.02;220657;203;136539;-86
2023/05/11 06:27:26;;;;;;;13.10;4.80;;;;;;;12.84;50.01;99281.33;222823;204;147003;-86
2023/05/11 06:32:32;;;;;;;7.10;4.60;;;;;;;12.89;50.22;99281.48;222878;214;138334;-86
2023/05/11 06:37:37;;;;;;;8.40;5.50;;;;;;;12.97;50.31;99279.52;222878;183;137032;-83
2023/05/11 06:42:42;;;;;;;7.40;4.70;;;;;;;13.07;50.06;99275.45;219793;215;147148;-85
2023/05/11 06:47:50;;;;;;;8.70;5.20;;;;;;;13.20;49.83;99277.98;223526;215;138164;-84
2023/05/11 06:53:09;;;;;;;12.40;4.50;;;;;;;13.35;50.05;99278.56;220291;204;137082;-82
2023/05/11 06:58:15;;;;;;;10.90;5.10;;;;;;;13.44;50.02;99275.92;222314;191;147272;-78
2023/05/11 07:03:19;;;;;;;7.20;5.10;;;;;;;13.51;50.00;99271.34;222693;183;138654;-73
2023/05/11 07:08:24;;;;;;;9.40;4.10;;;;;;;13.97;52.33;99263.98;223323;183;136665;-71
2023/05/11 07:13:29;;;;;;;9.50;4.20;;;;;;;15.30;50.91;99257.36;223460;194;147739;-72
2023/05/11 07:18:56;;;;;;;6.40;4.10;;;;;;;16.23;48.15;99253.61;220989;182;138238;-74
2023/05/11 07:24:01;;;;;;;8.60;4.20;;;;;;;16.82;46.54;99254.42;222867;182;136901;-71
2023/05/11 07:29:05;;;;;;;6.80;3.80;;;;;;;17.33;44.82;99249.48;220309;182;147064;-74
2023/05/11 07:34:09;;;;;;;8.30;3.90;;;;;;;17.59;44.06;99251.77;221680;215;138351;-71
2023/05/11 07:39:15;;;;;;;7.20;4.50;;;;;;;17.76;43.61;99244.55;223671;182;137287;-84
2023/05/11 07:44:28;;;;;;;9.30;4.80;;;;;;;17.52;43.06;99249.48;221785;196;147494;-83
2023/05/11 07:49:31;;;;;;;8.90;4.40;;;;;;;16.89;43.48;99248.33;219727;183;138799;-83
2023/05/11 07:54:45;;;;;;;5.90;4.30;;;;;;;16.55;44.22;99254.64;223466;215;136945;-83
2023/05/11 07:59:51;;;;;;;9.40;4.30;;;;;;;16.46;44.54;99252.39;220363;215;147108;-84
2023/05/11 08:04:56;;;;;;;6.80;3.50;;;;;;;16.35;44.70;99248.11;222465;182;138790;-84
2023/05/11 08:10:00;;;;;;;8.10;3.70;;;;;;;16.22;44.96;99244.18;222522;186;138242;-79
2023/05/11 08:15:04;;;;;;;6.80;3.70;;;;;;;16.16;45.51;99248.28;219540;186;146787;-80
2023/05/11 08:20:09;;;;;;;9.60;3.50;;;;;;;16.14;45.88;99244.10;221222;181;138349;-78
2023/05/11 08:25:15;;;;;;;9.20;4.00;;;;;;;16.20;46.18;99237.38;221204;183;137817;-78
2023/05/11 08:30:19;;;;;;;384.50;292.90;;;;;;;16.30;46.41;99236.89;223272;184;146742;-77
2023/05/11 08:35:26;;;;;;;10.20;7.80;;;;;;;16.43;46.39;99231.67;222503;203;139638;-80
2023/05/11 08:40:30;;;;;;;8.50;3.90;;;;;;;16.55;45.97;99231.44;223530;190;139043;-79
2023/05/11 08:45:35;;;;;;;7.90;3.50;;;;;;;16.72;46.16;99225.29;223541;188;147454;-76
2023/05/11 08:50:41;;;;;;;9.20;3.60;;;;;;;16.86;45.48;99226.88;223419;205;138659;-76
2023/05/11 08:55:46;;;;;;;8.70;3.40;;;;;;;17.04;45.02;99220.46;223588;184;136675;-76
2023/05/11 09:00:50;;;;;;;5.30;3.60;;;;;;;17.22;44.71;99214.83;223181;205;147193;-75
2023/05/11 09:05:56;;;;;;;6.40;3.60;;;;;;;17.43;44.26;99210.45;222111;209;139211;-83
2023/05/11 09:11:02;;;;;;;6.60;3.20;;;;;;;17.62;43.57;99210.02;223561;215;136385;-79
2023/05/11 09:16:07;;;;;;;31.00;17.50;;;;;;;17.77;42.67;99209.27;222116;194;147620;-73
2023/05/11 09:21:32;;;;;;;7.40;3.60;;;;;;;17.96;42.34;99207.88;223522;193;139252;-74
2023/05/11 09:26:35;;;;;;;12.70;3.30;;;;;;;18.16;42.79;99200.00;223181;192;137008;-74
2023/05/11 09:31:40;;;;;;;7.50;3.00;;;;;;;18.36;42.73;99196.02;223512;183;148004;-73
2023/05/11 09:36:47;;;;;;;6.20;3.60;;;;;;;18.64;41.85;99200.79;221569;204;138588;-73
2023/05/11 09:42:19;;;;;;;13.00;2.90;;;;;;;18.80;41.29;99195.20;223707;183;137060;-73
2023/05/11 09:47:23;;;;;;;7.60;2.40;;;;;;;19.02;40.22;99187.96;222951;183;148277;-73
2023/05/11 09:52:27;;;;;;;7.00;2.40;;;;;;;19.16;40.14;99182.13;223746;216;139462;-73
2023/05/11 09:57:31;;;;;;;12.80;9.30;;;;;;;19.30;40.35;99178.42;223735;184;137643;-66
2023/05/11 10:02:34;;;;;;;7.30;5.20;;;;;;;19.57;40.81;99170.95;223570;182;146962;-66
2023/05/11 10:07:38;;;;;;;9.80;3.50;;;;;;;19.83;41.20;99168.07;223590;216;139474;-65
2023/05/11 10:12:41;;;;;;;4.70;2.80;;;;;;;19.98;39.18;99166.90;223682;187;137726;-66
2023/05/11 10:17:45;;;;;;;9.50;5.20;;;;;;;20.30;37.76;99152.62;223638;216;147305;-67
2023/05/11 10:22:54;;;;;;;112.90;80.50;;;;;;;20.43;38.18;99141.50;223643;183;139429;-64
2023/05/11 10:27:57;;;;;;;14.30;2.00;;;;;;;20.57;35.85;99143.73;223685;216;137964;-64
2023/05/11 10:33:00;;;;;;;10.60;2.50;;;;;;;20.69;32.82;99137.34;223623;183;148791;-64
2023/05/11 10:38:05;;;;;;;4.70;2.30;;;;;;;20.83;32.78;99145.06;223601;216;138680;-66
2023/05/11 10:43:35;;;;;;;7.40;2.30;;;;;;;21.09;34.85;99139.14;223619;216;137071;-65
2023/05/11 10:48:41;;;;;;;8.30;2.20;;;;;;;21.06;32.78;99136.32;223625;184;148360;-67
2023/05/11 10:54:08;;;;;;;8.20;2.10;;;;;;;21.20;32.95;99133.09;223571;217;138425;-64
2023/05/11 10:59:37;;;;;;;2.80;1.90;;;;;;;21.47;32.69;99125.39;223629;217;139244;-64
2023/05/11 11:04:48;;;;;;;20.40;3.20;;;;;;;21.61;33.01;99116.66;223546;217;147184;-66
2023/05/11 11:14:58;;;;;;;11.00;2.10;;;;;;;21.98;30.65;99103.14;219889;214;666635;-65
2023/05/11 11:20:07;;;;;;;5.50;1.80;;;;;;;22.12;29.66;99101.95;220787;213;137443;-67
2023/05/11 11:25:11;;;;;;;8.40;1.90;;;;;;;22.14;29.81;99101.39;223651;216;143491;-65
2023/05/11 11:30:19;;;;;;;180.40;124.90;;;;;;;22.05;30.56;99101.31;223602;217;138221;-67
2023/05/11 11:35:40;;;;;;;6.60;3.20;;;;;;;22.03;29.79;99098.41;223658;217;140129;-65
2023/05/11 11:40:46;;;;;;;13.00;2.00;;;;;;;22.29;29.66;99097.99;223513;217;143486;-67
2023/05/11 11:46:01;;;;;;;6.50;1.70;;;;;;;22.50;28.60;99101.96;223625;216;140446;-65
2023/05/11 11:51:12;;;;;;;6.50;2.00;;;;;;;22.60;28.85;99095.82;223558;216;137872;-68
2023/05/11 11:56:15;;;;;;;6.80;1.80;;;;;;;22.70;29.20;99094.35;223581;217;144545;-68
2023/05/11 12:01:21;;;;;;;16.50;2.00;;;;;;;23.04;28.61;99089.26;223522;184;138451;-68
2023/05/11 12:06:31;;;;;;;12.60;9.70;;;;;;;23.34;28.15;99090.94;223523;217;140582;-65
2023/05/11 12:11:34;;;;;;;7.70;2.40;;;;;;;23.54;27.34;99088.61;223553;206;145374;-68
2023/05/11 12:16:37;;;;;;;5.40;3.00;;;;;;;23.70;27.06;99088.61;223500;217;138222;-65
2023/05/11 12:21:43;;;;;;;7.80;2.10;;;;;;;23.82;27.73;99082.73;223598;217;136689;-69
2023/05/11 12:26:46;;;;;;;6.30;2.00;;;;;;;24.12;27.86;99073.91;223628;217;145746;-65
2023/05/11 12:31:49;;;;;;;9.40;2.10;;;;;;;24.26;26.42;99075.14;223570;184;140382;-68
2023/05/11 12:36:53;;;;;;;2.40;1.50;;;;;;;24.29;25.54;99063.66;223625;214;137212;-68
2023/05/11 12:41:56;;;;;;;10.40;2.20;;;;;;;24.35;25.62;99059.60;223501;206;145650;-67
2023/05/11 12:46:59;;;;;;;7.20;1.50;;;;;;;24.54;24.79;99056.98;223561;217;138278;-67
2023/05/11 12:52:07;;;;;;;4.30;1.70;;;;;;;24.72;24.99;99059.17;223539;184;137007;-67
2023/05/11 12:57:28;;;;;;;5.20;1.30;;;;;;;24.81;24.33;99065.36;223505;189;145184;-66
2023/05/11 13:02:31;;;;;;;7.10;1.80;;;;;;;24.84;25.01;99059.32;223436;185;138796;-66
2023/05/11 13:07:34;;;;;;;2.20;1.30;;;;;;;24.92;24.21;99049.14;223536;217;137468;-67
2023/05/11 13:12:49;;;;;;;6.50;1.60;;;;;;;25.02;23.87;99044.39;223552;217;145126;-65
2023/05/11 13:17:57;;;;;;;5.70;1.40;;;;;;;24.99;24.09;99038.27;223490;210;139034;-69
2023/05/11 13:23:20;;;;;;;5.50;1.40;;;;;;;25.17;24.22;99034.92;219789;219;665590;-67
2023/05/11 13:28:24;;;;;;;6.60;1.60;;;;;;;25.12;24.34;99026.75;220941;209;137261;-71
2023/05/11 13:33:27;;;;;;;2.40;1.30;;;;;;;25.24;24.31;99023.92;221553;183;144315;-69
2023/05/11 13:38:30;;;;;;;5.90;1.30;;;;;;;25.35;24.08;99021.77;221552;182;138716;-68
2023/05/11 13:43:34;;;;;;;5.40;1.70;;;;;;;25.38;23.70;99028.59;221575;207;136769;-70
2023/05/11 13:48:37;;;;;;;4.20;1.60;;;;;;;25.39;23.53;99022.45;221847;184;144021;-69
2023/05/11 13:53:40;;;;;;;3.90;1.50;;;;;;;25.41;23.17;99014.60;221817;182;139121;-70
2023/05/11 13:58:44;;;;;;;4.40;1.50;;;;;;;25.32;23.40;99017.20;221493;183;136291;-67
2023/05/11 14:03:52;;;;;;;4.30;1.50;;;;;;;25.27;23.34;99011.40;221745;184;144030;-68
2023/05/11 14:08:57;;;;;;;5.90;1.90;;;;;;;25.18;22.87;99010.07;223846;192;139909;-65
2023/05/11 14:14:00;;;;;;;18.00;8.00;;;;;;;24.94;23.20;99003.61;223941;214;137199;-66
2023/05/11 14:23:09;;;;;;;10.60;2.70;;;;;;;24.66;24.67;99014.54;219721;190;666261;-73
2023/05/11 14:28:16;;;;;;;6.90;2.10;;;;;;;24.38;24.59;99003.88;223685;184;137460;-69
2023/05/11 14:33:20;;;;;;;5.40;2.10;;;;;;;24.16;25.24;99001.98;219477;185;145802;-71
2023/05/11 14:38:24;;;;;;;3.00;1.60;;;;;;;23.95;25.76;98992.22;219786;216;138592;-72
2023/05/11 14:43:28;;;;;;;3.60;1.40;;;;;;;23.59;25.12;98999.30;218512;184;136702;-66
2023/05/11 14:48:32;;;;;;;5.00;2.20;;;;;;;23.30;25.53;98992.84;223801;185;143240;-67
2023/05/11 14:53:36;;;;;;;6.70;1.50;;;;;;;23.06;25.94;98994.05;222783;216;139434;-65
2023/05/11 14:58:40;;;;;;;6.90;1.80;;;;;;;22.83;25.93;98996.21;220471;183;136605;-66
2023/05/11 15:03:44;;;;;;;5.80;1.70;;;;;;;22.57;25.97;98995.55;218577;185;143645;-69
2023/05/11 15:08:49;;;;;;;134.40;115.00;;;;;;;22.38;25.86;98999.89;218672;205;138713;-67
2023/05/11 15:13:52;;;;;;;2.90;1.80;;;;;;;22.14;25.88;98998.27;218536;194;137764;-67
2023/05/11 15:25:21;;;;;;;4.80;1.70;;;;;;;21.73;26.71;99001.83;223686;194;138417;-67
2023/05/11 15:30:24;;;;;;;46.30;32.00;;;;;;;21.61;28.30;98995.91;223662;216;136673;-68
2023/05/11 15:35:28;;;;;;;13.40;4.70;;;;;;;21.56;28.57;98998.28;223716;183;145189;-69
2023/05/11 15:40:32;;;;;;;9.70;3.10;;;;;;;21.55;28.86;98997.09;223909;183;138406;-66
2023/05/11 15:45:35;;;;;;;5.50;2.20;;;;;;;21.57;29.65;98995.98;218012;183;137098;-69
2023/05/11 15:50:39;;;;;;;3.50;1.60;;;;;;;21.62;29.57;99001.36;220350;183;146005;-68
2023/05/11 15:55:56;;;;;;;4.00;1.70;;;;;;;21.62;28.35;99003.88;223711;183;139683;-70
2023/05/11 16:01:00;;;;;;;2.50;1.70;;;;;;;21.61;29.22;99005.47;223314;183;137245;-68
2023/05/11 16:06:05;;;;;;;6.90;1.60;;;;;;;21.56;29.38;99006.95;223784;183;145664;-68
2023/05/11 16:11:09;;;;;;;16.10;13.90;;;;;;;21.50;30.11;99009.88;220277;183;138905;-68
2023/05/11 16:16:13;;;;;;;5.10;2.80;;;;;;;21.44;29.87;99004.61;223992;182;137549;-69
2023/05/11 16:21:17;;;;;;;6.60;2.70;;;;;;;21.33;29.51;99011.68;223751;183;145779;-69
2023/05/11 16:26:20;;;;;;;8.10;1.80;;;;;;;21.23;30.25;99016.36;223647;184;139217;-68
2023/05/11 16:31:24;;;;;;;6.00;1.80;;;;;;;21.14;31.38;99023.13;221705;203;137243;-70
2023/05/11 16:36:31;;;;;;;3.90;1.80;;;;;;;21.05;31.72;99020.86;218496;181;145994;-70
2023/05/11 16:41:34;;;;;;;7.40;1.80;;;;;;;20.92;32.78;99021.51;218290;214;138672;-71
2023/05/11 16:46:38;;;;;;;6.20;1.70;;;;;;;20.79;33.25;99024.48;221006;214;137589;-70
2023/05/11 16:51:42;;;;;;;5.10;1.60;;;;;;;20.66;32.45;99023.16;221665;205;145263;-70
2023/05/11 16:56:50;;;;;;;;;;;;;;;20.57;33.25;99025.81;221728;203;139245;-68
2023/05/11 17:01:54;;;;;;;3.50;2.00;;;;;;;20.49;32.77;99030.83;222619;203;131230;-65
2023/05/11 17:06:57;;;;;;;7.10;1.80;;;;;;;20.33;32.00;99030.98;223596;214;146117;-65
2023/05/11 17:12:34;;;;;;;8.40;2.10;;;;;;;20.25;32.25;99034.38;223816;204;140342;-63
2023/05/11 17:17:59;;;;;;;3.60;1.90;;;;;;;20.18;32.77;99038.49;223617;216;138239;-65
2023/05/11 17:23:02;;;;;;;14.70;8.90;;;;;;;20.11;33.18;99044.09;223543;184;145198;-62
2023/05/11 17:28:17;;;;;;;5.10;3.00;;;;;;;20.08;35.64;99046.70;223491;183;139710;-68
2023/05/11 17:33:45;;;;;;;4.30;2.90;;;;;;;20.15;37.50;99050.33;223126;183;139577;-64
2023/05/11 17:38:50;;;;;;;3.90;2.40;;;;;;;20.19;36.65;99049.05;223644;216;145308;-65
2023/05/11 17:43:55;;;;;;;7.70;2.70;;;;;;;20.17;35.98;99059.91;223604;216;138567;-64
2023/05/11 17:48:58;;;;;;;5.20;2.00;;;;;;;20.03;33.66;99061.44;223527;217;136854;-65
2023/05/11 17:54:02;;;;;;;6.00;2.30;;;;;;;19.85;33.24;99064.36;222705;214;145340;-65
2023/05/11 17:59:06;;;;;;;7.90;2.80;;;;;;;19.69;33.38;99069.57;221285;183;139221;-65
2023/05/11 18:04:09;;;;;;;4.30;1.90;;;;;;;19.51;33.37;99074.65;223629;215;136833;-64
2023/05/11 18:09:17;;;;;;;3.70;2.30;;;;;;;19.36;33.76;99077.04;223616;204;145309;-64
2023/05/11 18:14:20;;;;;;;7.40;3.00;;;;;;;19.26;33.80;99086.55;223620;215;139231;-62
2023/05/11 18:19:25;;;;;;;3.90;2.70;;;;;;;19.15;34.36;99090.48;223662;183;137542;-63
2023/05/11 18:24:28;;;;;;;4.10;2.20;;;;;;;19.04;34.50;99097.27;223684;181;146019;-62
2023/05/11 18:29:31;;;;;;;3.40;2.20;;;;;;;18.93;34.85;99103.36;223626;215;138186;-62
2023/05/11 18:34:34;;;;;;;5.00;2.70;;;;;;;18.81;35.42;99111.49;223684;215;138011;-62
2023/05/11 18:39:40;;;;;;;5.80;2.40;;;;;;;18.75;35.81;99120.02;223616;215;146946;-63
2023/05/11 18:44:43;;;;;;;5.90;3.90;;;;;;;18.62;36.14;99124.98;223637;215;138854;-61
2023/05/11 18:49:46;;;;;;;6.50;3.00;;;;;;;18.52;36.12;99129.14;223623;215;137682;-63
2023/05/11 18:54:50;;;;;;;7.00;2.70;;;;;;;18.42;36.18;99133.83;223553;215;145819;-63
2023/05/11 18:59:54;;;;;;;4.90;2.60;;;;;;;18.29;36.68;99141.52;223608;204;138707;-63
2023/05/11 19:04:57;;;;;;;6.00;2.70;;;;;;;18.19;37.11;99144.98;221854;183;136832;-62
2023/05/11 19:10:00;;;;;;;5.20;2.80;;;;;;;18.03;37.35;99151.81;221206;208;146043;-63
2023/05/11 19:15:05;;;;;;;5.80;2.90;;;;;;;17.91;37.72;99157.76;223582;207;138181;-63
2023/05/11 19:20:08;;;;;;;11.40;3.10;;;;;;;17.80;38.04;99159.13;223657;215;138357;-63
2023/05/11 19:25:13;;;;;;;5.10;3.30;;;;;;;17.71;38.22;99163.63;223661;215;145357;-64
2023/05/11 19:30:16;;;;;;;7.10;3.20;;;;;;;17.62;38.38;99167.34;223574;186;138396;-64
2023/05/11 19:35:20;;;;;;;7.60;3.20;;;;;;;17.53;38.09;99172.78;223647;215;137093;-63
2023/05/11 19:40:24;;;;;;;6.10;3.70;;;;;;;17.45;38.14;99176.92;223775;181;145566;-63
2023/05/11 19:45:32;;;;;;;7.20;3.90;;;;;;;17.37;38.62;99176.94;223827;182;138770;-63
2023/05/11 19:50:35;;;;;;;10.60;4.00;;;;;;;17.27;38.40;99182.22;223836;182;136978;-63
2023/05/11 19:55:39;;;;;;;6.80;3.50;;;;;;;17.22;38.73;99188.27;223958;182;145780;-62
2023/05/11 20:00:43;;;;;;;7.10;3.80;;;;;;;17.12;38.56;99188.77;223916;181;138601;-63
2023/05/11 20:05:46;;;;;;;5.30;3.40;;;;;;;17.08;38.37;99190.34;223846;181;136893;-62
2023/05/11 20:10:49;;;;;;;8.60;3.40;;;;;;;17.00;38.72;99191.75;223964;182;145563;-62
2023/05/11 20:15:52;;;;;;;7.80;3.50;;;;;;;16.92;39.25;99195.14;223853;182;139579;-62
2023/05/11 20:20:55;;;;;;;6.80;3.50;;;;;;;16.84;39.50;99201.20;223901;181;136924;-62
2023/05/11 20:25:58;;;;;;;7.50;3.60;;;;;;;16.73;39.77;99202.98;223864;181;145068;-62
2023/05/11 20:31:01;;;;;;;8.90;3.70;;;;;;;16.61;39.79;99201.88;223951;182;141062;-62
2023/05/11 20:36:04;;;;;;;10.90;4.00;;;;;;;16.53;39.73;99198.64;223823;181;137109;-63
2023/05/11 20:41:07;;;;;;;10.60;3.50;;;;;;;16.44;39.42;99196.34;223921;181;145221;-63
2023/05/11 20:46:10;;;;;;;7.90;3.60;;;;;;;16.35;40.25;99193.35;223853;182;138101;-63
2023/05/11 20:51:14;;;;;;;5.90;3.50;;;;;;;16.27;40.42;99197.20;223941;182;139532;-63
2023/05/11 20:56:17;;;;;;;8.00;4.10;;;;;;;16.17;40.54;99195.14;223860;182;145293;-63
2023/05/11 21:01:20;;;;;;;9.10;3.80;;;;;;;16.12;40.45;99200.45;223839;182;139103;-63
2023/05/11 21:06:23;;;;;;;10.80;3.40;;;;;;;16.04;40.77;99197.83;223907;181;136962;-62
2023/05/11 21:11:27;;;;;;;11.10;4.80;;;;;;;15.97;40.63;99198.80;223934;182;145345;-64
2023/05/11 21:16:31;;;;;;;10.20;3.60;;;;;;;15.89;40.82;99199.61;223781;181;138655;-62
2023/05/11 21:21:34;;;;;;;7.90;3.20;;;;;;;15.80;41.08;99204.59;223905;182;137518;-62
2023/05/11 21:26:37;;;;;;;5.90;3.60;;;;;;;15.72;40.86;99202.61;223915;181;145279;-61
2023/05/11 21:31:40;;;;;;;8.80;3.40;;;;;;;15.66;41.15;99203.46;223930;181;138297;-62
2023/05/11 21:36:44;;;;;;;8.00;3.40;;;;;;;15.59;40.77;99210.20;223891;181;137733;-63
2023/05/11 21:41:47;;;;;;;7.70;3.10;;;;;;;15.56;41.06;99211.36;223856;182;145333;-63
2023/05/11 21:46:50;;;;;;;12.50;3.60;;;;;;;15.48;41.36;99218.77;223794;181;138848;-62
2023/05/11 21:51:53;;;;;;;9.70;3.60;;;;;;;15.41;41.76;99214.73;223873;182;138079;-63
2023/05/11 21:56:56;;;;;;;9.00;3.60;;;;;;;15.34;42.33;99212.73;223844;181;145849;-62
2023/05/11 22:02:00;;;;;;;10.10;3.90;;;;;;;15.25;42.55;99214.00;223825;181;138467;-63
2023/05/11 22:07:03;;;;;;;13.70;4.20;;;;;;;15.17;42.45;99214.77;223939;182;137043;-63
2023/05/11 22:12:07;;;;;;;9.00;5.10;;;;;;;15.12;42.91;99215.89;223866;182;145388;-62
2023/05/11 22:17:10;;;;;;;8.20;4.20;;;;;;;15.06;43.06;99217.45;223819;182;138247;-61
2023/05/11 22:22:13;;;;;;;8.30;3.80;;;;;;;15.01;42.84;99219.09;223875;181;137606;-61
2023/05/11 22:27:16;;;;;;;9.20;4.30;;;;;;;14.97;42.94;99224.02;223984;182;146594;-61
2023/05/11 22:32:20;;;;;;;9.10;4.30;;;;;;;14.92;42.91;99223.14;223883;182;138590;-60
2023/05/11 22:37:23;;;;;;;8.80;4.00;;;;;;;14.85;43.23;99224.59;223935;182;136202;-61
2023/05/11 22:42:29;;;;;;;9.00;4.20;;;;;;;14.80;43.34;99231.27;223893;181;146784;-61
2023/05/11 22:47:32;;;;;;;9.90;3.90;;;;;;;14.71;43.28;99228.38;223868;182;138459;-60
2023/05/11 22:52:35;;;;;;;11.00;4.60;;;;;;;14.67;43.30;99227.62;223772;181;137304;-61
2023/05/11 22:57:39;;;;;;;12.00;4.30;;;;;;;14.60;43.70;99229.16;223848;181;146912;-62
2023/05/11 23:02:42;;;;;;;9.50;4.10;;;;;;;14.58;43.75;99230.80;223751;181;138387;-63
2023/05/11 23:07:45;;;;;;;13.10;4.00;;;;;;;14.50;43.92;99232.98;223819;181;137202;-63
2023/05/11 23:12:48;;;;;;;7.60;3.80;;;;;;;14.44;44.48;99229.49;223825;182;147714;-63
2023/05/11 23:17:51;;;;;;;10.20;4.00;;;;;;;14.35;44.57;99226.77;223907;181;138818;-62
2023/05/11 23:22:54;;;;;;;7.80;4.00;;;;;;;14.27;44.38;99220.74;223877;181;137282;-62
2023/05/11 23:27:57;;;;;;;6.40;3.60;;;;;;;14.22;44.87;99223.08;223858;182;147098;-62
2023/05/11 23:33:00;;;;;;;9.30;4.10;;;;;;;14.15;44.82;99223.95;223743;181;275848;-64
2023/05/11 23:38:03;;;;;;;8.30;3.70;;;;;;;14.12;44.81;99226.84;223853;181;137189;-63
2023/05/11 23:43:07;;;;;;;12.40;4.00;;;;;;;14.07;44.70;99224.36;223827;181;150254;-63
2023/05/11 23:48:10;;;;;;;10.00;4.80;;;;;;;14.03;45.00;99226.64;223791;182;138112;-62
2023/05/11 23:53:13;;;;;;;9.30;4.20;;;;;;;13.99;44.92;99222.67;223852;181;137047;-62
2023/05/11 23:58:16;;;;;;;7.90;3.60;;;;;;;13.94;45.09;99230.27;223840;182;147051;-62
